Time;durP1;ratioP1;P1;durP2;ratioP2;P2;SDS_P1;SDS_P2;PMS_P1;PMS_P2;Temp;Humidity;BMP_temperature;BMP_pressure;BME280_temperature;BME280_humidity;BME280_pressure;Samples;Min_cycle;Max_cycle;Signal;HPM_P1;HPM_P2
2023/12/14 05:48:05;;;;;;;9.10;5.72;;;;;;;5.82;100.00;101369.56;4976526;24;20090;-71
2023/12/14 05:50:31;;;;;;;11.82;6.30;;;;;;;5.77;100.00;101381.69;4797281;29;20043;-74
2023/12/14 05:52:56;;;;;;;9.77;5.00;;;;;;;5.54;100.00;101388.63;4796537;29;20399;-72
2023/12/14 05:55:21;;;;;;;8.77;5.57;;;;;;;5.50;100.00;101400.41;4797205;29;20087;-72
2023/12/14 05:57:48;;;;;;;10.75;5.93;;;;;;;5.75;100.00;101395.09;4797437;29;20051;-74
2023/12/14 06:00:13;;;;;;;10.35;6.68;;;;;;;5.58;100.00;101395.16;4795648;29;20058;-73
2023/12/14 06:02:39;;;;;;;10.98;5.88;;;;;;;5.71;100.00;101402.44;4795276;29;20062;-73
2023/12/14 06:05:07;;;;;;;11.70;5.65;;;;;;;5.58;100.00;101398.72;4799088;29;20031;-72
2023/12/14 06:07:32;;;;;;;10.55;6.18;;;;;;;5.90;100.00;101411.22;4796539;29;20062;-72
2023/12/14 06:09:58;;;;;;;11.82;6.72;;;;;;;5.69;100.00;101413.06;4793800;29;20139;-72
2023/12/14 06:12:23;;;;;;;11.25;5.85;;;;;;;5.74;100.00;101407.34;4796456;29;20484;-73
2023/12/14 06:14:49;;;;;;;11.73;6.30;;;;;;;5.91;100.00;101412.84;4795235;29;20379;-73
2023/12/14 06:17:15;;;;;;;10.55;6.18;;;;;;;6.02;100.00;101427.22;4793553;29;20060;-73
2023/12/14 06:19:40;;;;;;;10.10;6.60;;;;;;;5.91;100.00;101428.72;4798169;29;20035;-74
2023/12/14 06:22:06;;;;;;;9.32;5.00;;;;;;;5.90;100.00;101433.44;4797205;29;20121;-73
2023/12/14 06:24:31;;;;;;;13.60;8.02;;;;;;;5.82;100.00;101431.53;4796167;29;20034;-72
2023/12/14 06:26:56;;;;;;;10.40;6.05;;;;;;;5.63;100.00;101436.63;4796358;29;20046;-72
2023/12/14 06:29:22;;;;;;;9.77;6.18;;;;;;;5.82;100.00;101448.19;4799214;29;20034;-73
2023/12/14 06:31:47;;;;;;;11.93;6.65;;;;;;;6.05;100.00;101456.28;4796250;29;20045;-71
2023/12/14 06:34:15;;;;;;;11.30;6.20;;;;;;;6.00;100.00;101456.50;4791539;29;20519;-72
2023/12/14 06:36:44;;;;;;;11.43;7.47;;;;;;;6.06;100.00;101457.94;4793412;29;20035;-72
2023/12/14 06:39:10;;;;;;;11.32;7.10;;;;;;;6.06;100.00;101469.06;4791625;29;20536;-73
2023/12/14 06:41:36;;;;;;;9.32;6.60;;;;;;;6.13;100.00;101474.09;4795255;29;20062;-74
2023/12/14 06:44:01;;;;;;;13.73;7.15;;;;;;;6.13;100.00;101474.91;4794450;29;20502;-73
2023/12/14 06:46:27;;;;;;;10.85;7.05;;;;;;;6.22;100.00;101478.47;4793273;29;20027;-72
2023/12/14 06:48:53;;;;;;;10.98;6.95;;;;;;;6.15;100.00;101482.91;4778260;29;20129;-72
2023/12/14 06:51:18;;;;;;;11.77;6.05;;;;;;;6.15;100.00;101472.59;4781005;29;20124;-72
2023/12/14 06:53:45;;;;;;;12.52;7.32;;;;;;;6.15;100.00;101472.59;4780195;29;20508;-72
2023/12/14 06:56:11;;;;;;;12.65;7.25;;;;;;;7.05;100.00;101479.78;4776585;29;20063;-76
2023/12/14 06:58:38;;;;;;;13.93;7.57;;;;;;;6.51;100.00;101474.06;4780818;30;20090;-76
2023/12/14 07:01:04;;;;;;;13.82;6.85;;;;;;;6.42;100.00;101476.09;4777003;29;20043;-76
2023/12/14 07:03:29;;;;;;;13.93;7.40;;;;;;;6.36;100.00;101483.00;4775227;29;20039;-76
2023/12/14 07:05:54;;;;;;;10.60;6.13;;;;;;;6.27;100.00;101492.19;4773522;29;20046;-75
2023/12/14 07:08:20;;;;;;;12.90;7.22;;;;;;;6.26;100.00;101496.13;4777276;29;20066;-73
2023/12/14 07:10:45;;;;;;;13.02;6.70;;;;;;;6.46;100.00;101499.31;4774086;29;20039;-72
2023/12/14 07:13:10;;;;;;;10.57;6.28;;;;;;;6.31;100.00;101509.81;4772933;29;20043;-73
2023/12/14 07:15:36;;;;;;;10.02;6.35;;;;;;;6.30;100.00;101519.34;4790379;29;20122;-73
2023/12/14 07:18:01;;;;;;;9.60;6.50;;;;;;;6.24;100.00;101517.88;4770666;29;20071;-72
2023/12/14 07:20:27;;;;;;;9.27;6.53;;;;;;;6.25;100.00;101527.84;4774112;29;20088;-74
2023/12/14 07:22:53;;;;;;;12.02;7.07;;;;;;;6.21;100.00;101529.66;4776092;29;20040;-73
2023/12/14 07:25:18;;;;;;;11.30;6.50;;;;;;;6.20;100.00;101539.16;4775032;30;20059;-72
2023/12/14 07:27:43;;;;;;;10.75;6.85;;;;;;;6.16;100.00;101523.47;4778012;29;20058;-72
2023/12/14 07:30:09;;;;;;;10.95;6.22;;;;;;;6.12;100.00;101534.44;4801606;29;20035;-74
2023/12/14 07:32:35;;;;;;;12.48;6.82;;;;;;;6.07;100.00;101535.44;4777242;29;20489;-74
2023/12/14 07:35:00;;;;;;;12.00;7.15;;;;;;;7.67;100.00;101549.69;4779453;29;20118;-72
2023/12/14 07:37:26;;;;;;;9.75;6.10;;;;;;;6.68;100.00;101554.66;4772185;29;20118;-73
2023/12/14 07:39:51;;;;;;;10.75;6.05;;;;;;;6.47;100.00;101567.66;4775297;29;20542;-73
2023/12/14 07:42:19;;;;;;;10.70;6.32;;;;;;;6.40;100.00;101570.16;4774767;30;20504;-73
2023/12/14 07:44:45;;;;;;;8.27;5.93;;;;;;;6.29;100.00;101576.06;4772975;29;20066;-73
2023/12/14 07:47:10;;;;;;;11.80;6.85;;;;;;;6.05;100.00;101576.63;4775001;29;20071;-73
2023/12/14 07:49:35;;;;;;;10.50;6.53;;;;;;;5.91;100.00;101581.53;4778807;29;20035;-73
2023/12/14 07:52:02;;;;;;;12.77;6.90;;;;;;;5.76;100.00;101582.84;4775899;29;20713;-73
2023/12/14 07:54:28;;;;;;;12.60;7.60;;;;;;;5.93;100.00;101587.56;4770859;29;20040;-73
2023/12/14 07:56:54;;;;;;;11.70;6.57;;;;;;;5.99;100.00;101597.41;4788929;29;20122;-73
2023/12/14 07:59:20;;;;;;;11.13;6.70;;;;;;;6.07;100.00;101598.50;4783584;29;20032;-74
2023/12/14 08:01:46;;;;;;;11.05;5.82;;;;;;;6.07;100.00;101598.50;4776531;29;20056;-73
2023/12/14 08:04:11;;;;;;;13.02;6.43;;;;;;;6.07;100.00;101595.75;4772257;29;20111;-73
2023/12/14 08:06:39;;;;;;;10.65;6.38;;;;;;;6.12;100.00;101614.22;4775879;29;20561;-72
2023/12/14 08:09:05;;;;;;;8.75;5.95;;;;;;;6.04;100.00;101613.09;4784166;29;20146;-74
2023/12/14 08:11:30;;;;;;;12.25;6.05;;;;;;;6.02;100.00;101618.97;4775085;29;20039;-73
2023/12/14 08:13:56;;;;;;;9.73;5.43;;;;;;;6.10;100.00;101614.56;4773512;29;20451;-73
2023/12/14 08:16:21;;;;;;;10.23;6.10;;;;;;;6.01;100.00;101622.06;4788665;29;20540;-73
2023/12/14 08:18:48;;;;;;;12.20;6.10;;;;;;;5.79;100.00;101632.19;4776544;29;20038;-73
2023/12/14 08:21:13;;;;;;;10.95;5.95;;;;;;;5.88;100.00;101638.56;4776955;29;20039;-74
2023/12/14 08:23:39;;;;;;;14.23;6.47;;;;;;;5.62;100.00;101643.28;4771229;29;20035;-72
2023/12/14 08:26:04;;;;;;;11.50;6.75;;;;;;;5.87;100.00;101645.25;4779558;29;20123;-73
2023/12/14 08:28:29;;;;;;;12.13;7.10;;;;;;;5.85;100.00;101641.19;4777913;29;20378;-73
2023/12/14 08:30:57;;;;;;;12.63;6.40;;;;;;;5.95;100.00;101635.34;4778339;29;20035;-72
2023/12/14 08:33:23;;;;;;;10.15;6.63;;;;;;;5.83;100.00;101644.28;4790291;29;20034;-73
2023/12/14 08:35:49;;;;;;;11.98;6.80;;;;;;;5.77;100.00;101644.78;4779954;29;20107;-73
2023/12/14 08:38:14;;;;;;;9.02;5.88;;;;;;;5.78;100.00;101649.19;4783040;29;20122;-73
2023/12/14 08:40:39;;;;;;;12.25;6.90;;;;;;;5.93;100.00;101640.38;4775363;29;20619;-74
2023/12/14 08:43:05;;;;;;;15.30;6.18;;;;;;;6.01;100.00;101647.91;4781702;29;20035;-73
2023/12/14 08:45:30;;;;;;;12.35;6.40;;;;;;;5.90;100.00;101650.19;4777556;29;20031;-73
2023/12/14 08:47:56;;;;;;;7.60;5.57;;;;;;;6.00;100.00;101654.59;4791530;29;20505;-72
2023/12/14 08:50:21;;;;;;;8.95;6.00;;;;;;;5.71;100.00;101658.00;4775733;29;20173;-73
2023/12/14 08:52:46;;;;;;;10.52;5.45;;;;;;;5.87;100.00;101663.91;4780917;29;20058;-73
2023/12/14 08:55:12;;;;;;;7.53;5.15;;;;;;;5.74;100.00;101668.47;4790827;29;20130;-73
2023/12/14 08:57:38;;;;;;;9.98;5.28;;;;;;;5.71;100.00;101683.00;4793875;29;20032;-73
2023/12/14 09:00:07;;;;;;;9.13;5.70;;;;;;;5.43;100.00;101691.63;4773993;29;20079;-74
2023/12/14 09:02:32;;;;;;;10.52;5.57;;;;;;;5.34;100.00;101690.78;4781600;29;20472;-72
2023/12/14 09:04:58;;;;;;;7.60;4.68;;;;;;;5.48;100.00;101693.41;4792179;29;20038;-73
2023/12/14 09:07:24;;;;;;;5.88;3.00;;;;;;;5.43;100.00;101688.03;4774479;29;20031;-73
2023/12/14 09:09:50;;;;;;;4.55;3.70;;;;;;;5.33;100.00;101702.19;4787785;29;20047;-73
2023/12/14 09:12:15;;;;;;;8.48;4.50;;;;;;;5.64;100.00;101702.94;4778324;29;20162;-74
2023/12/14 09:14:40;;;;;;;7.85;4.47;;;;;;;5.59;100.00;101705.06;4774066;29;20039;-74
2023/12/14 09:17:06;;;;;;;6.68;4.25;;;;;;;5.73;100.00;101707.69;4785054;29;20598;-74
2023/12/14 09:19:31;;;;;;;6.15;4.03;;;;;;;5.55;100.00;101718.78;4781945;29;20027;-73
2023/12/14 09:21:57;;;;;;;6.35;3.72;;;;;;;5.82;100.00;101709.34;4782858;29;20074;-73
2023/12/14 09:24:23;;;;;;;8.40;4.53;;;;;;;6.02;100.00;101712.66;4783076;29;20035;-73
2023/12/14 09:26:48;;;;;;;5.85;4.35;;;;;;;6.10;100.00;101717.41;4802431;29;20035;-73
2023/12/14 09:29:15;;;;;;;8.85;5.05;;;;;;;6.04;100.00;101713.13;4776123;29;20040;-72
2023/12/14 09:31:44;;;;;;;7.45;4.60;;;;;;;6.03;100.00;101719.81;4774074;29;20028;-74
2023/12/14 09:34:10;;;;;;;6.55;4.63;;;;;;;6.12;100.00;101722.63;4775402;29;20046;-73
2023/12/14 09:36:36;;;;;;;9.77;5.40;;;;;;;6.05;100.00;101734.22;4774847;29;20062;-74
2023/12/14 09:39:02;;;;;;;13.25;5.50;;;;;;;6.19;100.00;101722.94;4785606;29;20119;-74
2023/12/14 09:41:27;;;;;;;8.18;5.60;;;;;;;6.20;100.00;101728.19;4794778;29;20041;-74
2023/12/14 09:43:53;;;;;;;9.48;5.45;;;;;;;6.14;100.00;101737.84;4781723;29;20032;-74
2023/12/14 09:46:20;;;;;;;9.65;5.90;;;;;;;6.26;100.00;101734.38;4770446;29;20028;-75
2023/12/14 09:48:47;;;;;;;6.80;4.85;;;;;;;6.28;100.00;101735.72;4775852;29;20075;-75
2023/12/14 09:51:13;;;;;;;12.75;6.13;;;;;;;6.29;100.00;101730.97;4780122;29;20031;-75
2023/12/14 09:53:38;;;;;;;8.45;5.32;;;;;;;6.27;100.00;101734.06;4778182;29;20062;-74
2023/12/14 09:56:04;;;;;;;14.93;5.95;;;;;;;6.22;100.00;101750.91;4773776;29;20062;-74
2023/12/14 09:58:33;;;;;;;13.95;6.28;;;;;;;6.27;100.00;101759.09;4780397;29;20370;-74
2023/12/14 10:01:00;;;;;;;10.50;5.55;;;;;;;6.30;100.00;101752.88;4775721;29;20063;-74
2023/12/14 10:03:28;;;;;;;14.77;6.55;;;;;;;6.23;100.00;101763.66;4783268;29;20039;-74
2023/12/14 10:05:58;;;;;;;10.55;6.07;;;;;;;6.36;100.00;101761.84;4782013;29;20388;-74
2023/12/14 10:08:24;;;;;;;13.90;6.60;;;;;;;6.20;100.00;101767.09;4769653;29;20049;-74
2023/12/14 10:10:52;;;;;;;13.70;6.47;;;;;;;6.27;100.00;101773.00;4787245;29;20484;-74
2023/12/14 10:13:18;;;;;;;12.02;6.93;;;;;;;6.33;100.00;101778.41;4775141;29;20039;-74
2023/12/14 10:15:46;;;;;;;11.10;6.95;;;;;;;6.37;100.00;101780.19;4769434;29;20032;-74
2023/12/14 10:18:11;;;;;;;11.90;6.40;;;;;;;6.21;100.00;101782.63;4775493;29;20043;-74
2023/12/14 10:20:37;;;;;;;13.90;6.82;;;;;;;6.18;100.00;101783.28;4782553;29;20032;-74
2023/12/14 10:23:04;;;;;;;12.43;5.88;;;;;;;6.35;100.00;101788.06;4794605;29;20403;-74
2023/12/14 10:25:30;;;;;;;12.70;6.35;;;;;;;6.35;100.00;101790.03;4786413;29;20565;-74
2023/12/14 10:27:57;;;;;;;14.13;6.43;;;;;;;6.42;100.00;101799.50;4786099;29;20034;-74
2023/12/14 10:30:22;;;;;;;13.43;5.93;;;;;;;6.38;100.00;101795.72;4781303;29;20047;-74
2023/12/14 10:32:48;;;;;;;12.00;6.50;;;;;;;6.30;100.00;101797.38;4771733;29;20043;-74
2023/12/14 10:35:16;;;;;;;13.38;7.53;;;;;;;6.40;100.00;101800.97;4781671;29;20408;-74
2023/12/14 10:37:42;;;;;;;14.02;7.70;;;;;;;6.43;100.00;101805.84;4782856;29;20104;-74
2023/12/14 10:40:12;;;;;;;16.45;8.15;;;;;;;6.38;100.00;101817.97;4775955;29;20034;-75
2023/12/14 10:42:42;;;;;;;11.65;6.32;;;;;;;6.40;100.00;101815.69;4782571;29;20047;-75
2023/12/14 10:45:10;;;;;;;15.18;8.32;;;;;;;6.46;100.00;101816.34;4774908;29;20413;-76
2023/12/14 10:47:38;;;;;;;12.65;6.43;;;;;;;6.43;100.00;101811.41;4787854;29;20055;-76
2023/12/14 10:50:05;;;;;;;15.73;7.03;;;;;;;6.47;100.00;101812.41;4780662;30;20121;-75
2023/12/14 10:52:35;;;;;;;11.88;7.55;;;;;;;6.44;100.00;101818.63;4781711;29;20428;-76
2023/12/14 10:55:07;;;;;;;18.02;7.43;;;;;;;6.46;100.00;101819.94;4780628;29;20031;-76
2023/12/14 10:57:34;;;;;;;12.23;6.22;;;;;;;6.27;100.00;101814.69;4785417;29;20041;-75
2023/12/14 11:00:01;;;;;;;15.95;6.88;;;;;;;6.30;100.00;101802.94;4778128;29;20031;-76
2023/12/14 11:02:27;;;;;;;13.63;7.32;;;;;;;6.27;100.00;101814.69;4775513;29;20046;-76
2023/12/14 11:04:58;;;;;;;14.65;6.47;;;;;;;6.27;100.00;101803.56;4779183;29;20035;-75
2023/12/14 11:07:43;;;;;;;14.95;7.05;;;;;;;6.38;100.00;101808.81;4781082;29;20031;-73
2023/12/14 11:10:09;;;;;;;12.32;5.88;;;;;;;6.45;100.00;101820.25;4771787;29;20047;-74
2023/12/14 11:12:34;;;;;;;12.13;7.30;;;;;;;6.39;100.00;101816.00;4776520;29;20101;-74
2023/12/14 11:15:00;;;;;;;14.05;7.10;;;;;;;6.40;100.00;101818.47;4783916;29;20064;-74
2023/12/14 11:17:25;;;;;;;15.20;6.70;;;;;;;6.44;100.00;101822.22;4790082;29;20043;-74
2023/12/14 11:19:53;;;;;;;14.48;8.52;;;;;;;6.35;100.00;101829.75;4782995;29;20115;-75
2023/12/14 11:22:27;;;;;;;13.40;7.53;;;;;;;6.46;100.00;101827.47;4780683;29;20288;-74
2023/12/14 11:24:56;;;;;;;12.65;8.38;;;;;;;6.07;100.00;101823.66;4773454;29;20032;-75
2023/12/14 11:27:29;;;;;;;16.60;7.45;;;;;;;6.31;100.00;101826.00;4781970;29;20030;-75
2023/12/14 11:29:55;;;;;;;13.85;6.55;;;;;;;6.36;100.00;101838.91;4773039;29;20031;-75
2023/12/14 11:32:21;;;;;;;12.82;6.88;;;;;;;6.40;100.00;101840.72;4778872;29;20035;-75
2023/12/14 11:34:47;;;;;;;21.08;6.85;;;;;;;6.29;100.00;101845.78;4780760;29;20027;-75
2023/12/14 11:37:12;;;;;;;12.20;7.15;;;;;;;6.31;100.00;101839.91;4778424;29;20046;-75
2023/12/14 11:39:38;;;;;;;16.30;7.32;;;;;;;6.51;100.00;101830.91;4779439;30;20507;-74
2023/12/14 11:42:06;;;;;;;12.40;7.45;;;;;;;6.36;100.00;101847.25;4778883;30;20408;-74
2023/12/14 11:44:32;;;;;;;17.23;7.40;;;;;;;6.45;100.00;101850.84;4779099;29;20138;-74
2023/12/14 11:46:57;;;;;;;14.32;7.03;;;;;;;6.12;100.00;101856.88;4780832;29;20622;-75
2023/12/14 11:49:26;;;;;;;9.85;6.22;;;;;;;6.33;100.00;101864.59;4776274;29;20806;-75
2023/12/14 11:51:53;;;;;;;11.80;7.13;;;;;;;6.28;100.00;101866.41;4775840;29;20120;-75
2023/12/14 11:54:19;;;;;;;14.30;7.72;;;;;;;6.47;100.00;101873.59;4776838;29;20043;-75
2023/12/14 11:56:49;;;;;;;9.85;6.32;;;;;;;6.46;100.00;101870.00;4793246;29;20031;-75
2023/12/14 11:59:17;;;;;;;11.13;6.45;;;;;;;6.53;100.00;101868.69;4777637;29;20051;-75
2023/12/14 12:02:02;;;;;;;11.30;5.38;;;;;;;6.15;100.00;101858.19;4782637;29;20395;-76
2023/12/14 12:04:28;;;;;;;10.32;6.25;;;;;;;6.41;100.00;101864.59;4781221;29;20122;-75
2023/12/14 12:07:04;;;;;;;12.73;6.25;;;;;;;6.33;100.00;101870.97;4781468;29;20531;-75
2023/12/14 12:09:41;;;;;;;13.50;6.13;;;;;;;6.17;100.00;101875.34;4775247;29;20035;-76
2023/12/14 12:12:12;;;;;;;11.23;5.80;;;;;;;6.48;100.00;101875.25;4780645;29;20114;-75
2023/12/14 12:14:38;;;;;;;9.60;5.45;;;;;;;6.47;100.00;101868.03;4787166;29;20039;-75
2023/12/14 12:17:05;;;;;;;9.05;5.55;;;;;;;6.54;100.00;101871.16;4775521;29;20051;-75
2023/12/14 12:19:35;;;;;;;11.07;5.75;;;;;;;6.55;100.00;101864.44;4780645;29;20046;-75
2023/12/14 12:22:00;;;;;;;10.63;5.85;;;;;;;6.60;100.00;101860.69;4779232;29;20036;-74
2023/12/14 12:24:26;;;;;;;13.20;5.30;;;;;;;6.61;100.00;101862.31;4777100;29;20038;-74
2023/12/14 12:26:51;;;;;;;11.52;5.50;;;;;;;6.41;100.00;101872.13;4772124;30;20119;-75
2023/12/14 12:29:16;;;;;;;7.25;5.03;;;;;;;6.58;100.00;101872.16;4774705;30;20168;-75
2023/12/14 12:31:42;;;;;;;8.90;5.57;;;;;;;6.52;100.00;101881.78;4776540;29;20127;-75
2023/12/14 12:34:08;;;;;;;11.25;5.45;;;;;;;6.58;100.00;101891.63;4773704;29;20328;-75
2023/12/14 12:36:34;;;;;;;12.07;5.60;;;;;;;6.14;100.00;101887.94;4780641;30;20826;-75
2023/12/14 12:38:59;;;;;;;11.48;5.90;;;;;;;6.30;100.00;101877.16;4779668;29;20118;-75
2023/12/14 12:41:24;;;;;;;7.90;5.43;;;;;;;6.21;100.00;101893.84;4777852;29;20038;-75
2023/12/14 12:43:50;;;;;;;10.10;5.40;;;;;;;6.40;100.00;101876.88;4778742;29;20035;-76
2023/12/14 12:46:15;;;;;;;9.27;4.90;;;;;;;6.41;100.00;101881.28;4782668;29;20444;-76
2023/12/14 12:48:40;;;;;;;9.55;5.93;;;;;;;6.47;100.00;101890.28;4781856;29;20122;-75
2023/12/14 12:51:06;;;;;;;9.45;5.25;;;;;;;6.53;100.00;101894.53;4775282;29;20130;-75
2023/12/14 12:53:33;;;;;;;12.98;6.68;;;;;;;6.21;100.00;101896.63;4772550;29;20122;-76
2023/12/14 12:55:58;;;;;;;9.43;5.70;;;;;;;6.47;100.00;101895.84;4778309;29;20031;-76
2023/12/14 12:58:24;;;;;;;13.15;6.20;;;;;;;6.52;100.00;101895.72;4779679;29;20084;-75
2023/12/14 13:00:49;;;;;;;11.10;6.20;;;;;;;6.50;100.00;101901.59;4784806;30;20039;-76
2023/12/14 13:03:14;;;;;;;10.95;6.60;;;;;;;6.16;100.00;101910.69;4783517;29;20046;-75
2023/12/14 13:05:40;;;;;;;10.07;6.18;;;;;;;6.26;100.00;101906.75;4780962;29;20131;-75
2023/12/14 13:08:05;;;;;;;11.35;6.05;;;;;;;6.86;100.00;101908.00;4783085;29;20043;-74
2023/12/14 13:10:30;;;;;;;11.85;6.03;;;;;;;6.90;100.00;101907.00;4773076;29;20450;-75
2023/12/14 13:12:56;;;;;;;10.50;6.20;;;;;;;6.80;100.00;101909.31;4778265;29;20050;-74
2023/12/14 13:15:26;;;;;;;16.52;6.78;;;;;;;6.44;100.00;101919.56;4780823;29;20065;-75
2023/12/14 13:17:52;;;;;;;11.77;6.57;;;;;;;6.19;100.00;101914.78;4775149;29;20562;-77
2023/12/14 13:20:18;;;;;;;12.50;6.53;;;;;;;6.37;100.00;101907.31;4780242;29;20027;-76
2023/12/14 13:22:43;;;;;;;14.05;6.53;;;;;;;6.54;100.00;101907.31;4782939;29;20081;-76
2023/12/14 13:25:09;;;;;;;11.98;6.50;;;;;;;6.58;100.00;101908.31;4783388;29;20403;-78
2023/12/14 13:27:36;;;;;;;13.05;6.53;;;;;;;6.46;100.00;101908.94;4780508;29;20133;-75
2023/12/14 13:30:02;;;;;;;13.75;7.53;;;;;;;6.44;100.00;101915.97;4783114;29;20130;-76
2023/12/14 13:32:28;;;;;;;13.50;7.65;;;;;;;6.32;100.00;101916.59;4783978;29;20499;-76
2023/12/14 13:34:53;;;;;;;10.93;7.40;;;;;;;6.02;100.00;101915.53;4783648;29;20035;-76
2023/12/14 13:37:18;;;;;;;11.60;6.68;;;;;;;6.48;100.00;101911.41;4781395;29;20092;-77
2023/12/14 13:39:44;;;;;;;15.90;6.90;;;;;;;6.37;100.00;101912.88;4783640;29;20130;-76
2023/12/14 13:42:09;;;;;;;10.82;6.60;;;;;;;6.45;100.00;101921.22;4778265;29;20035;-78
2023/12/14 13:44:35;;;;;;;13.23;7.20;;;;;;;6.46;100.00;101922.84;4782559;29;20046;-75
2023/12/14 13:47:04;;;;;;;13.32;7.72;;;;;;;6.52;100.00;101926.31;4774016;29;20065;-74
2023/12/14 13:49:30;;;;;;;13.50;6.88;;;;;;;6.44;100.00;101935.44;4778748;29;20122;-75
2023/12/14 13:51:55;;;;;;;13.38;6.53;;;;;;;6.27;100.00;101939.00;4784064;29;20103;-75
2023/12/14 13:54:20;;;;;;;13.48;6.78;;;;;;;6.47;100.00;101943.13;4781917;29;20035;-75
2023/12/14 13:56:45;;;;;;;14.45;7.40;;;;;;;6.51;100.00;101942.19;4782171;29;20042;-75
2023/12/14 13:59:11;;;;;;;14.85;7.20;;;;;;;6.61;100.00;101938.25;4782207;29;20039;-76
2023/12/14 14:01:37;;;;;;;13.52;7.35;;;;;;;6.21;100.00;101948.63;4785796;29;20044;-75
2023/12/14 14:04:03;;;;;;;12.00;6.78;;;;;;;6.26;100.00;101946.53;4782208;29;20032;-75
2023/12/14 14:06:28;;;;;;;9.88;6.72;;;;;;;6.21;100.00;101945.84;4784757;29;20366;-76
2023/12/14 14:08:54;;;;;;;11.77;6.53;;;;;;;6.32;100.00;101952.75;4794903;29;20027;-75
2023/12/14 14:11:22;;;;;;;14.60;7.47;;;;;;;6.25;100.00;101960.75;4779409;29;20128;-75
2023/12/14 14:13:47;;;;;;;11.95;6.82;;;;;;;6.41;100.00;101969.44;4780510;29;20172;-76
2023/12/14 14:16:12;;;;;;;10.60;6.30;;;;;;;6.14;100.00;101971.34;4781342;29;20044;-74
2023/12/14 14:18:38;;;;;;;11.38;6.70;;;;;;;6.37;100.00;101979.59;4784225;29;20396;-75
2023/12/14 14:21:07;;;;;;;11.77;6.72;;;;;;;6.47;100.00;101984.84;4800894;29;20035;-74
2023/12/14 14:23:32;;;;;;;10.80;7.13;;;;;;;6.34;100.00;101975.47;4783563;29;20042;-74
2023/12/14 14:25:58;;;;;;;10.50;6.70;;;;;;;6.39;100.00;101980.91;4785178;29;20427;-75
2023/12/14 14:28:23;;;;;;;12.00;5.95;;;;;;;6.16;100.00;101996.06;4781851;29;20039;-74
2023/12/14 14:30:49;;;;;;;12.95;7.63;;;;;;;6.02;100.00;101998.91;4781550;29;20480;-73
2023/12/14 14:33:18;;;;;;;15.80;6.70;;;;;;;6.08;100.00;101994.84;4777890;29;20031;-73
2023/12/14 14:35:47;;;;;;;11.10;6.57;;;;;;;6.17;100.00;101997.69;4797044;29;20031;-74
2023/12/14 14:38:13;;;;;;;13.32;6.93;;;;;;;6.39;100.00;102002.31;4795234;29;20070;-73
2023/12/14 14:40:40;;;;;;;12.10;6.38;;;;;;;6.24;100.00;102009.97;4782715;29;20138;-74
2023/12/14 14:43:05;;;;;;;13.77;7.68;;;;;;;6.38;100.00;102006.25;4782207;29;20047;-74
2023/12/14 14:45:30;;;;;;;12.35;6.97;;;;;;;6.49;100.00;102021.50;4791886;29;20043;-74
2023/12/14 14:47:56;;;;;;;11.13;6.20;;;;;;;6.33;100.00;102025.88;4779896;29;20051;-75
2023/12/14 14:50:22;;;;;;;11.02;6.30;;;;;;;6.36;100.00;102037.16;4778659;29;20047;-73
2023/12/14 14:52:48;;;;;;;11.10;5.95;;;;;;;6.40;100.00;102029.00;4779918;29;20044;-74
2023/12/14 14:55:13;;;;;;;12.68;6.85;;;;;;;6.17;100.00;102031.84;4794018;29;20561;-73
2023/12/14 14:57:39;;;;;;;12.30;5.97;;;;;;;6.22;100.00;102042.00;4781740;29;20134;-74
2023/12/14 15:00:05;;;;;;;10.05;6.07;;;;;;;6.37;100.00;102040.78;4793901;29;20519;-74
2023/12/14 15:02:31;;;;;;;14.10;7.28;;;;;;;6.38;100.00;102042.41;4779579;29;20508;-72
2023/12/14 15:04:56;;;;;;;12.23;6.38;;;;;;;6.24;100.00;102043.34;4776078;29;20101;-73
2023/12/14 15:07:22;;;;;;;12.50;7.20;;;;;;;6.24;100.00;102048.91;4777325;29;20137;-72
2023/12/14 15:09:47;;;;;;;13.65;6.97;;;;;;;6.28;100.00;102055.47;4774954;30;20038;-73
2023/12/14 15:12:13;;;;;;;10.95;6.35;;;;;;;6.25;100.00;102061.66;4798525;29;20039;-74
2023/12/14 15:14:38;;;;;;;13.38;7.40;;;;;;;6.23;100.00;102069.50;4781820;29;20039;-72
2023/12/14 15:17:03;;;;;;;12.52;7.18;;;;;;;6.31;100.00;102074.28;4801478;29;20039;-75
2023/12/14 15:19:29;;;;;;;12.00;5.95;;;;;;;6.36;100.00;102078.06;4778654;30;20073;-73
2023/12/14 15:21:54;;;;;;;12.68;7.32;;;;;;;6.25;100.00;102077.53;4779439;29;20450;-72
2023/12/14 15:24:19;;;;;;;10.48;7.32;;;;;;;5.93;100.00;102075.84;4776672;30;20373;-73
2023/12/14 15:26:45;;;;;;;12.38;7.07;;;;;;;5.97;100.00;102076.88;4779486;29;20125;-72
2023/12/14 15:29:10;;;;;;;12.70;6.68;;;;;;;6.28;100.00;102077.72;4780651;29;20038;-73
2023/12/14 15:31:36;;;;;;;14.82;6.72;;;;;;;6.66;100.00;102082.78;4777936;29;20045;-73
2023/12/14 15:34:01;;;;;;;12.13;6.55;;;;;;;6.24;100.00;102092.56;4778041;29;20400;-72
2023/12/14 15:36:27;;;;;;;15.38;7.43;;;;;;;6.38;100.00;102098.03;4777993;29;20031;-73
2023/12/14 15:38:53;;;;;;;13.52;6.80;;;;;;;6.38;100.00;102095.25;4778733;29;21352;-73
2023/12/14 15:41:19;;;;;;;11.60;5.88;;;;;;;6.31;100.00;102106.84;4779437;30;20045;-72
2023/12/14 15:43:44;;;;;;;12.32;6.97;;;;;;;6.26;100.00;102113.38;4777836;29;20042;-73
2023/12/14 15:46:11;;;;;;;13.30;7.15;;;;;;;6.29;100.00;102109.13;4778733;29;21585;-73
2023/12/14 15:48:36;;;;;;;16.38;7.78;;;;;;;6.59;100.00;102110.25;4774380;29;20047;-73
2023/12/14 15:51:05;;;;;;;14.02;8.00;;;;;;;6.28;100.00;102113.03;4776653;29;20043;-72
2023/12/14 15:53:32;;;;;;;13.52;7.70;;;;;;;6.35;100.00;102099.50;4776062;29;20511;-73
2023/12/14 15:55:58;;;;;;;18.17;9.73;;;;;;;6.24;100.00;102101.72;4778281;29;20035;-73
2023/12/14 15:58:24;;;;;;;15.30;7.88;;;;;;;6.02;100.00;102108.13;4776436;29;20059;-73
2023/12/14 16:00:50;;;;;;;15.13;8.30;;;;;;;6.17;100.00;102123.59;4777431;29;20039;-73
2023/12/14 16:03:15;;;;;;;13.93;8.15;;;;;;;6.19;100.00;102124.09;4775036;29;20031;-72
2023/12/14 16:05:40;;;;;;;13.88;6.70;;;;;;;6.16;100.00;102121.97;4791933;29;20176;-73
2023/12/14 16:08:07;;;;;;;16.25;7.93;;;;;;;6.23;100.00;102130.66;4777111;29;20035;-72
2023/12/14 16:10:33;;;;;;;12.68;7.25;;;;;;;6.21;100.00;102132.94;4774977;29;21103;-72
2023/12/14 16:12:58;;;;;;;14.68;7.90;;;;;;;6.09;100.00;102125.19;4775516;29;20047;-73
2023/12/14 16:15:24;;;;;;;15.63;8.85;;;;;;;6.12;100.00;102129.28;4775272;29;20043;-74
2023/12/14 16:17:49;;;;;;;13.10;7.95;;;;;;;6.05;100.00;102129.75;4781483;29;20070;-72
2023/12/14 16:20:16;;;;;;;14.73;7.55;;;;;;;5.93;100.00;102128.66;4793671;29;20023;-72
2023/12/14 16:22:42;;;;;;;13.15;7.88;;;;;;;6.06;100.00;102125.00;4780107;29;20062;-72
2023/12/14 16:25:09;;;;;;;14.75;8.10;;;;;;;5.94;100.00;102131.09;4780734;29;20496;-72
2023/12/14 16:27:35;;;;;;;13.18;7.55;;;;;;;6.08;100.00;102139.41;4778394;29;20043;-72
2023/12/14 16:30:00;;;;;;;14.23;7.65;;;;;;;6.21;100.00;102137.69;4776396;29;20134;-74
2023/12/14 16:32:26;;;;;;;14.43;8.05;;;;;;;6.15;100.00;102142.53;4774097;29;20493;-74
2023/12/14 16:34:52;;;;;;;14.05;9.27;;;;;;;6.01;100.00;102150.97;4777080;29;20500;-72
2023/12/14 16:37:18;;;;;;;11.55;7.85;;;;;;;5.96;100.00;102150.25;4772244;29;20038;-75
2023/12/14 16:39:44;;;;;;;15.15;8.00;;;;;;;5.97;100.00;102154.69;4779871;29;20035;-75
2023/12/14 16:42:09;;;;;;;14.52;8.15;;;;;;;5.95;100.00;102151.41;4774020;30;20836;-75
2023/12/14 16:44:37;;;;;;;19.50;8.30;;;;;;;6.09;100.00;102152.16;4777840;29;20035;-75
2023/12/14 16:47:02;;;;;;;14.93;8.30;;;;;;;6.07;100.00;102154.41;4776082;29;20071;-75
2023/12/14 16:49:28;;;;;;;14.18;8.25;;;;;;;6.00;100.00;102149.31;4777242;29;20419;-75
2023/12/14 16:51:53;;;;;;;16.42;8.68;;;;;;;6.07;100.00;102154.41;4778012;29;20084;-75
2023/12/14 16:54:19;;;;;;;14.50;7.35;;;;;;;5.88;100.00;102157.34;4776424;29;20496;-75
2023/12/14 16:56:44;;;;;;;16.55;9.07;;;;;;;5.95;100.00;102159.75;4778281;29;20023;-75
2023/12/14 16:59:10;;;;;;;21.35;8.93;;;;;;;6.02;100.00;102160.13;4783408;29;20391;-75
2023/12/14 17:01:38;;;;;;;14.75;8.05;;;;;;;6.01;100.00;102167.66;4779536;29;20047;-75